ProRodeoTv.Com
Red

PRCA Stock Statistics

SEARCH BY:
Stock Rodeo Contestant Stock Contractor

Tanner Aus

EVENT:
Unofficial results reflect placement at time of Web posting and can change.

SEASON BREAKDOWN

Season Attempts Qual Rides Re-rides Ride %
2017 102 101 0 99.02 %
2016 89 85 0 95.51 %
2015 96 94 0 97.92 %
2014 42 40 0 95.24 %
2013 33 30 0 90.91 %
2012 64 60 0 93.75 %
2011 72 70 0 97.22 %
Totals 498 480 0 0.00 %

RODEO DETAIL

Date Location Rodeo SC Brand Ride Comments Stock Score Contestant Score
9/30/2017 Sioux Falls, SD Sioux Falls Premier Rodeo WCC Finale SU 507 81.00 19.00 / 19.00 22.00 / 21.00
9/29/2017 Sioux Falls, SD Sioux Falls Premier Rodeo WCC Finale RH 89 83.00 21.00 / 22.00 20.00 / 20.00
9/8/2017 Puyallup, WA Washington State Fair Pro Rodeo TB 703 74.00 18.00 / 18.50 18.00 / 19.50
9/8/2017 Puyallup, WA Washington State Fair Pro Rodeo CA R-20 75.50 19.00 / 20.00 18.00 / 18.50
9/7/2017 Fort Madison, IA Tri-State Rodeo CC -Q39 75.00 17.00 / 19.00 18.00 / 21.00
9/3/2017 Dayton, IA Dayton Championship Rodeo CB K28 70.00 18.00 / 17.00 18.00 / 17.00
9/3/2017 Ellensburg, WA Ellensburg Rodeo CH X185 88.00 22.00 / 22.00 21.00 / 23.00
9/1/2017 Walla Walla, WA Walla Walla Frontier Days TB 110 76.00 19.00 / 18.00 19.00 / 20.00
9/1/2017 Ellensburg, WA Ellensburg Rodeo CA R-16 83.00 22.00 / 22.00 18.00 / 21.00
8/28/2017 Pueblo, CO Colorado State Fair & Rodeo RM 110 79.00 17.00 / 19.00 21.00 / 22.00
8/26/2017 Hastings, NE Oregon Trail Rodeo KR 505 75.00 17.00 / 17.00 20.00 / 21.00
8/26/2017 San Juan Capistrano, CA Rancho Mission Viejo Rodeo CB P49 78.50 19.00 / 19.00 18.50 / 22.00
8/25/2017 Rapid City, SD Range Days Rodeo BH 124 82.00 21.00 / 19.00 21.00 / 21.00
8/24/2017 Tremonton, UT Golden Spike Rodeo BT 6+2 77.50 18.00 / 17.00 20.50 / 22.00
8/22/2017 Kennewick, WA Horse Heaven Round-Up TB 20 77.00 17.00 / 16.00 22.00 / 22.00
8/19/2017 Baker, MT Fallon County Fair & Rodeo MO 108 82.00 20.00 / 19.00 22.00 / 21.00
8/18/2017 Circle, MT McCone County Fair PRCA Rodeo JB F43 86.00 21.00 / 21.00 21.00 / 23.00
8/17/2017 Billings, MT Yellowstone River Round-Up SA 235 82.50 20.50 / 20.00 21.00 / 21.00
8/16/2017 Caldwell, ID Caldwell Night Rodeo DH 1301 79.00 17.00 / 17.50 22.50 / 22.00
8/13/2017 Sioux Falls, SD Sioux Empire Fair Rodeo KR 414 82.00 21.00 / 18.00 20.00 / 23.00
8/12/2017 Lawton, OK Lawton Rangers Rodeo BU 303 85.00 21.00 / 21.50 20.00 / 22.50
8/9/2017 Sikeston, MO Sikeston Jaycee Bootheel Rodeo RH 01 84.00 20.00 / 21.00 21.00 / 22.00
8/5/2017 Sidney, IA Iowa s Championship Rodeo CB T82 83.00 19.00 / 21.00 21.00 / 22.00
8/4/2017 Great Falls, MT Big Sky ProRodeo Roundup SA 709 78.00 20.00 / 19.00 17.00 / 22.00
8/3/2017 Sidney, MT Richland County Fair & Rodeo BR 015 87.50 21.50 / 21.00 22.00 / 23.00
Page of 5
Per Page
 
 
 
Copyright © 2017 Professional Rodeo Cowboys Association. All rights reserved. No portion of ProRodeo.com may be duplicated, redistributed or manipulated in any form. By accessing any information beyond this page, you agree to abide by the Terms of Use.
PRCA Wrangler National Finals Rodeo Wrangler Champions Challenge Justin Boots Playoffs Xtreme Bulls RAM National Circuit Finals Rodeo ProRodeo Gear ProRodeoTv.com var gaJsHost = (("https:" == document.location.protocol) ? "https://ssl." : "http://www."); document.write(unescape("%3Cscript src='" + gaJsHost + "google-analytics.com/ga.js' type='text/javascript'%3E%3C/script%3E"));